createdAt,value
2022-07-25T00:04:57.680Z,100480.00
2022-07-25T00:11:00.735Z,100450.00
2022-07-25T00:17:03.070Z,100467.00
2022-07-25T00:23:05.589Z,100461.00
2022-07-25T00:29:08.212Z,100453.00
2022-07-25T00:35:10.573Z,100456.00
2022-07-25T00:41:12.938Z,100460.00
2022-07-25T00:47:15.654Z,100456.00
2022-07-25T00:53:19.055Z,100454.00
2022-07-25T00:59:21.219Z,100454.00
2022-07-25T01:05:23.443Z,100448.00
2022-07-25T01:11:26.240Z,100449.00
2022-07-25T01:17:28.509Z,100436.00
2022-07-25T01:23:30.720Z,100445.00
2022-07-25T01:29:32.793Z,100436.00
2022-07-25T01:35:43.314Z,100431.00
2022-07-25T01:41:45.961Z,100439.00
2022-07-25T01:47:48.126Z,100451.00
2022-07-25T01:53:50.455Z,100446.00
2022-07-25T01:59:52.836Z,100439.00
2022-07-25T02:05:55.442Z,100449.00
2022-07-25T02:11:58.570Z,100437.00
2022-07-25T02:18:01.041Z,100424.00
2022-07-25T02:24:04.082Z,100422.00
2022-07-25T02:30:07.219Z,100424.00
2022-07-25T02:36:10.271Z,100419.00
2022-07-25T02:42:12.855Z,100418.00
2022-07-25T02:48:15.297Z,100423.00
2022-07-25T02:54:17.658Z,100423.00
2022-07-25T03:00:20.093Z,100425.00
2022-07-25T03:06:22.538Z,100426.00
2022-07-25T03:12:25.347Z,100430.00
2022-07-25T03:18:27.702Z,100429.00
2022-07-25T03:24:29.863Z,100425.00
2022-07-25T03:30:32.276Z,100433.00
2022-07-25T03:36:34.514Z,100437.00
2022-07-25T03:42:36.735Z,100435.00
2022-07-25T03:48:39.388Z,100433.00
2022-07-25T03:54:41.851Z,100444.00
2022-07-25T04:00:44.347Z,100441.00
2022-07-25T04:06:47.477Z,100435.00
2022-07-25T04:12:49.934Z,100432.00
2022-07-25T04:18:52.465Z,100428.00
2022-07-25T04:24:55.014Z,100442.00
2022-07-25T04:30:57.233Z,100441.00
2022-07-25T04:36:59.381Z,100456.00
2022-07-25T04:43:01.713Z,100449.00
2022-07-25T04:49:04.278Z,100456.00
2022-07-25T04:55:07.104Z,100456.00
2022-07-25T05:01:09.607Z,100461.00
2022-07-25T05:07:11.943Z,100454.00
2022-07-25T05:13:14.204Z,100457.00
2022-07-25T05:19:18.649Z,100455.00
2022-07-25T05:25:20.997Z,100455.00
2022-07-25T05:31:23.161Z,100461.00
2022-07-25T05:37:25.535Z,100447.00
2022-07-25T05:43:28.050Z,100466.00
2022-07-25T05:49:30.224Z,100456.00
2022-07-25T05:55:32.796Z,100413.00
2022-07-25T06:01:35.106Z,100415.00
2022-07-25T06:07:37.285Z,100409.00
2022-07-25T06:13:39.721Z,100409.00
2022-07-25T06:19:43.041Z,100408.00
2022-07-25T06:25:49.986Z,100418.00
2022-07-25T06:31:53.365Z,100427.00
2022-07-25T06:37:55.807Z,100425.00
2022-07-25T06:43:57.884Z,100425.00
2022-07-25T06:50:00.268Z,100426.00
2022-07-25T06:56:02.568Z,100427.00
2022-07-25T07:02:05.433Z,100434.00
2022-07-25T07:08:07.814Z,100421.00
2022-07-25T07:14:10.182Z,100425.00
2022-07-25T07:20:12.686Z,100435.00
2022-07-25T07:26:15.802Z,100439.00
2022-07-25T07:32:17.978Z,100438.00
2022-07-25T07:38:20.166Z,100450.00
2022-07-25T07:44:22.478Z,100441.00
2022-07-25T07:50:27.176Z,100443.00
2022-07-25T07:56:29.515Z,100440.00
2022-07-25T08:02:31.783Z,100431.00
2022-07-25T08:08:34.247Z,100426.00
2022-07-25T08:14:36.488Z,100425.00
2022-07-25T08:20:39.573Z,100439.00
2022-07-25T08:26:42.138Z,100445.00
2022-07-25T08:32:48.296Z,100430.00
2022-07-25T08:38:50.622Z,100440.00
2022-07-25T08:45:00.246Z,100420.00
2022-07-25T08:51:03.311Z,100422.00
2022-07-25T08:57:05.929Z,100424.00
2022-07-25T09:03:08.650Z,100417.00
2022-07-25T09:09:11.151Z,100420.00
2022-07-25T09:15:33.262Z,100426.00
2022-07-25T09:21:35.669Z,100422.00
2022-07-25T09:27:38.246Z,100428.00
2022-07-25T09:33:52.390Z,100418.00
2022-07-25T09:39:54.625Z,100417.00
2022-07-25T09:45:59.297Z,100418.00
2022-07-25T09:52:01.741Z,100425.00
2022-07-25T09:58:04.731Z,100419.00
2022-07-25T10:04:28.477Z,100406.00
2022-07-25T10:10:33.192Z,100410.00
2022-07-25T10:16:46.036Z,100393.00
2022-07-25T10:22:57.077Z,100391.00
2022-07-25T10:29:01.865Z,100387.00
2022-07-25T10:35:16.385Z,100410.00
2022-07-25T10:41:19.087Z,100438.00
2022-07-25T10:47:26.307Z,100388.00
2022-07-25T10:53:46.499Z,100395.00
2022-07-25T10:59:48.913Z,100387.00
2022-07-25T11:05:54.899Z,100381.00
2022-07-25T11:11:59.042Z,100397.00
2022-07-25T11:18:01.476Z,100409.00
2022-07-25T11:24:03.905Z,100354.00
2022-07-25T11:30:15.196Z,100348.00
2022-07-25T11:36:18.259Z,100345.00
2022-07-25T11:42:24.941Z,100339.00
2022-07-25T11:48:32.802Z,100341.00
2022-07-25T11:54:35.005Z,100333.00
2022-07-25T12:00:42.541Z,100321.00
2022-07-25T12:06:50.420Z,100315.00
2022-07-25T12:12:55.995Z,100319.00
2022-07-25T12:18:58.232Z,100226.00
2022-07-25T12:25:00.612Z,100222.00
2022-07-25T12:31:03.128Z,100230.00
2022-07-25T12:37:05.654Z,100188.00
2022-07-25T12:43:07.908Z,100216.00
2022-07-25T12:49:10.847Z,100254.00
2022-07-25T12:55:16.282Z,100259.00
2022-07-25T13:01:18.796Z,100250.00
2022-07-25T13:07:21.225Z,100257.00
2022-07-25T13:13:23.521Z,100253.00
2022-07-25T13:19:25.836Z,100239.00
2022-07-25T13:25:28.281Z,100241.00
2022-07-25T13:31:31.023Z,100226.00
2022-07-25T13:37:33.785Z,100230.00
2022-07-25T13:43:36.288Z,100225.00
2022-07-25T13:49:38.568Z,100216.00
2022-07-25T13:55:41.479Z,100206.00
2022-07-25T14:01:44.687Z,100226.00
2022-07-25T14:07:47.363Z,100226.00
2022-07-25T14:13:49.587Z,100224.00
2022-07-25T14:19:51.830Z,100204.00
2022-07-25T14:25:54.138Z,100204.00
2022-07-25T14:31:56.339Z,100200.00
2022-07-25T14:37:58.741Z,100200.00
2022-07-25T14:44:01.170Z,100178.00
2022-07-25T14:50:03.754Z,100188.00
2022-07-25T14:56:06.815Z,100169.00
2022-07-25T15:02:09.504Z,100166.00
2022-07-25T15:08:12.976Z,100153.00
2022-07-25T15:14:15.699Z,100146.00
2022-07-25T15:20:17.922Z,100148.00
2022-07-25T15:26:20.896Z,100134.00
2022-07-25T15:32:23.029Z,100139.00
2022-07-25T15:38:25.491Z,100141.00
2022-07-25T15:44:27.780Z,100131.00
2022-07-25T15:50:30.060Z,100142.00
2022-07-25T15:56:32.287Z,100134.00
2022-07-25T16:02:35.162Z,100136.00
2022-07-25T16:08:37.948Z,100142.00
2022-07-25T16:14:40.360Z,100142.00
2022-07-25T16:20:42.470Z,100138.00
2022-07-25T16:26:45.193Z,100145.00
2022-07-25T16:32:48.595Z,100142.00
2022-07-25T16:38:50.962Z,100147.00
2022-07-25T16:44:53.239Z,100142.00
2022-07-25T16:50:56.019Z,100147.00
2022-07-25T16:56:59.846Z,100148.00
2022-07-25T17:03:02.181Z,100150.00
2022-07-25T17:09:05.567Z,100155.00
2022-07-25T17:15:09.107Z,100161.00
2022-07-25T17:21:11.255Z,100154.00
2022-07-25T17:27:13.799Z,100152.00
2022-07-25T17:33:16.737Z,100154.00
2022-07-25T17:39:18.962Z,100149.00
2022-07-25T17:45:21.264Z,100156.00
2022-07-25T17:51:23.598Z,100154.00
2022-07-25T17:57:26.321Z,100155.00
2022-07-25T18:03:28.878Z,100158.00
2022-07-25T18:09:31.362Z,100167.00
2022-07-25T18:15:33.487Z,100182.00
2022-07-25T18:21:35.712Z,100180.00
2022-07-25T18:27:45.904Z,100177.00
2022-07-25T18:33:48.309Z,100182.00
2022-07-25T18:39:50.536Z,100182.00
2022-07-25T18:45:52.789Z,100190.00
2022-07-25T18:51:55.352Z,100196.00
2022-07-25T18:57:57.533Z,100191.00
2022-07-25T19:03:59.808Z,100187.00
2022-07-25T19:10:02.675Z,100190.00
2022-07-25T19:16:05.387Z,100192.00
2022-07-25T19:22:08.205Z,100190.00
2022-07-25T19:28:10.518Z,100202.00
2022-07-25T19:34:12.944Z,100192.00
2022-07-25T19:40:15.057Z,100193.00
2022-07-25T19:46:17.431Z,100198.00
2022-07-25T19:52:19.663Z,100196.00
2022-07-25T19:58:21.798Z,100197.00
2022-07-25T20:04:24.114Z,100194.00
2022-07-25T20:10:26.379Z,100195.00
2022-07-25T20:16:29.053Z,100204.00
2022-07-25T20:22:36.031Z,100200.00
2022-07-25T20:28:38.440Z,100206.00
2022-07-25T20:34:40.919Z,100202.00
2022-07-25T20:40:49.413Z,100200.00
2022-07-25T20:46:52.181Z,100207.00
2022-07-25T20:52:54.450Z,100211.00
2022-07-25T20:58:56.938Z,100209.00
2022-07-25T21:04:59.463Z,100214.00
2022-07-25T21:11:01.937Z,100218.00
2022-07-25T21:17:04.510Z,100218.00
2022-07-25T21:23:06.817Z,100215.00
2022-07-25T21:29:10.169Z,100214.00
2022-07-25T21:35:12.921Z,100219.00
2022-07-25T21:41:15.383Z,100224.00
2022-07-25T21:47:17.684Z,100221.00
2022-07-25T21:53:19.884Z,100220.00
2022-07-25T21:59:22.372Z,100213.00
2022-07-25T22:05:24.744Z,100212.00
2022-07-25T22:11:42.699Z,100209.00
2022-07-25T22:17:50.120Z,100214.00
2022-07-25T22:23:52.537Z,100221.00
2022-07-25T22:29:54.650Z,100204.00
2022-07-25T22:35:57.764Z,100206.00
2022-07-25T22:42:00.287Z,100205.00
2022-07-25T22:48:02.739Z,100211.00
2022-07-25T22:54:05.228Z,100214.00
2022-07-25T23:00:10.030Z,100214.00
2022-07-25T23:06:12.381Z,100209.00
2022-07-25T23:12:14.859Z,100205.00
2022-07-25T23:18:30.065Z,100202.00
2022-07-25T23:24:37.408Z,100201.00
2022-07-25T23:30:40.749Z,100203.00
2022-07-25T23:36:43.171Z,100186.00
2022-07-25T23:42:45.503Z,100183.00
2022-07-25T23:48:49.894Z,100182.00
2022-07-25T23:54:52.296Z,100181.00
